Humidity-temperature Sensor

Selected Measurement Type: Relative Humidity

 
Relative Humidity [%]     6 entries per hour
Showing data from 2/27/2022 (00:00:00 Z) to 2/24/2022 (00:01:00 Z)
Previous Next [ Day | 3-Days | 7-Days ]
First Last
Prev [ Day | 3-Days | 7-Days ] Next
First Last

Start Time:     :
End Time:     :     
Time (in GMT) :00 :50 :40 :30 :20 :10
Previous Next [ Day | 3-Days | 7-Days ]
First Last
Prev [ Day | 3-Days | 7-Days ] Next
First Last


123 => good data
MM => data is determined as missing
-- => data not received/configured
Back to Top Back to Top
2/27/2022 00:00 to 23:10 87.09 87.20 86.91 85.67 85.28 85.28
2/26/2022 23:00 to 22:10 85.51 85.55 85.18 85.07 85.20 84.70
2/26/2022 22:00 to 21:10 86.19 85.77 85.88 86.10 86.04 85.65
2/26/2022 21:00 to 20:10 84.87 86.64 86.76 86.95 86.19 85.05
2/26/2022 20:00 to 19:10 84.54 84.74 84.85 85.24 85.80 85.30
2/26/2022 19:00 to 18:10 85.53 85.01 84.85 85.69 84.93 86.08
2/26/2022 18:00 to 17:10 84.58 83.96 86.93 85.61 86.23 84.70
2/26/2022 17:00 to 16:10 85.44 85.22 84.83 85.12 84.58 84.31
2/26/2022 16:00 to 15:10 84.62 86.19 86.78 87.63 87.59 87.80
2/26/2022 15:00 to 14:10 87.18 87.05 88.54 87.82 86.15 85.26
2/26/2022 14:00 to 13:10 86.19 86.17 85.92 85.77 86.81 87.42
2/26/2022 13:00 to 12:10 87.16 86.43 86.48 85.75 86.02 86.10
2/26/2022 12:00 to 11:10 85.94 87.40 86.35 85.92 86.37 87.32
2/26/2022 11:00 to 10:10 87.14 86.31 85.51 85.53 85.84 84.79
2/26/2022 10:00 to 9:10 84.46 84.43 85.18 85.24 85.94 86.04
2/26/2022 09:00 to 8:10 86.02 85.01 86.52 86.52 86.43 86.21
2/26/2022 08:00 to 7:10 86.64 86.15 85.05 84.85 85.22 85.01
2/26/2022 07:00 to 6:10 85.34 85.40 84.76 85.69 85.69 86.72
2/26/2022 06:00 to 5:10 86.43 84.31 85.40 86.08 85.44 86.50
2/26/2022 05:00 to 4:10 85.98 84.66 84.60 85.36 84.29 83.42
2/26/2022 04:00 to 3:10 84.02 84.31 84.79 84.72 84.10 84.08
2/26/2022 03:00 to 2:10 84.41 84.08 83.71 83.61 84.13 84.68
2/26/2022 02:00 to 1:10 84.41 84.54 85.03 85.16 84.91 85.26
2/26/2022 01:00 to 0:10 85.73 85.24 84.68 84.23 84.35 84.25
2/26/2022 00:00 to 23:10 84.89 84.50 83.34 83.26 82.66 83.16
2/25/2022 23:00 to 22:10 83.55 83.92 84.06 83.09 83.73 83.67
2/25/2022 22:00 to 21:10 83.22 83.16 84.62 84.41 84.97 84.64
2/25/2022 21:00 to 20:10 84.56 84.70 84.79 84.27 84.60 84.19
2/25/2022 20:00 to 19:10 84.37 84.66 83.80 83.32 83.71 84.39
2/25/2022 19:00 to 18:10 83.94 83.69 83.67 82.66 82.29 82.54
2/25/2022 18:00 to 17:10 82.08 83.09 82.31 81.36 82.33 82.27
2/25/2022 17:00 to 16:10 81.57 81.71 82.29 80.64 81.28 81.32
2/25/2022 16:00 to 15:10 81.32 82.13 81.30 82.50 84.06 84.58
2/25/2022 15:00 to 14:10 85.12 84.08 84.13 84.35 83.96 84.52
2/25/2022 14:00 to 13:10 84.33 85.90 86.83 85.69 86.39 86.21
2/25/2022 13:00 to 12:10 86.08 85.49 85.49 85.67 84.00 83.94
2/25/2022 12:00 to 11:10 84.04 82.60 83.34 83.45 82.76 82.41
2/25/2022 11:00 to 10:10 82.97 83.57 84.72 83.28 82.76 83.36
2/25/2022 10:00 to 9:10 82.83 83.73 83.45 83.82 83.84 84.50
2/25/2022 09:00 to 8:10 85.09 86.41 85.69 85.86 86.21 86.27
2/25/2022 08:00 to 7:10 85.18 85.86 86.46 86.74 86.50 86.21
2/25/2022 07:00 to 6:10 85.80 85.77 85.77 85.53 85.34 85.69
2/25/2022 06:00 to 5:10 86.15 86.62 85.77 84.85 84.87 85.65
2/25/2022 05:00 to 4:10 85.07 84.62 84.31 85.49 86.33 85.86
2/25/2022 04:00 to 3:10 86.68 87.51 86.21 85.30 86.10 85.63
2/25/2022 03:00 to 2:10 85.75 86.00 84.81 86.23 86.17 85.75
2/25/2022 02:00 to 1:10 85.69 85.61 85.69 85.44 85.82 86.46
2/25/2022 01:00 to 0:10 86.33 86.95 86.37 86.56 86.25 87.26
2/25/2022 00:00 to 23:10 87.26 86.43 86.02 86.29 87.67 86.68
2/24/2022 23:00 to 22:10 86.89 86.29 85.86 87.90 87.30 87.47
2/24/2022 22:00 to 21:10 87.20 86.62 86.64 87.22 86.23 87.11
2/24/2022 21:00 to 20:10 85.84 87.20 86.48 86.50 85.88 84.93
2/24/2022 20:00 to 19:10 84.81 85.44 86.21 86.99 85.05 85.14
2/24/2022 19:00 to 18:10 84.37 85.32 84.81 84.76 86.46 85.61
2/24/2022 18:00 to 17:10 86.23 86.46 86.56 86.13 86.68 85.34
2/24/2022 17:00 to 16:10 86.54 85.30 84.95 86.70 85.59 84.70
2/24/2022 16:00 to 15:10 84.23 84.54 85.86 85.61 86.33 87.05
2/24/2022 15:00 to 14:10 86.93 86.04 87.28 86.48 85.90 86.95
2/24/2022 14:00 to 13:10 86.66 85.30 85.57 87.18 87.22 87.03
2/24/2022 13:00 to 12:10 85.59 86.62 86.10 87.18 86.81 87.57
2/24/2022 12:00 to 11:10 87.88 85.86 86.48 87.09 87.11 87.32
2/24/2022 11:00 to 10:10 85.92 85.28 86.21 86.93 86.46 86.97
2/24/2022 10:00 to 9:10 87.73 86.35 87.14 87.84 88.70 88.56
2/24/2022 09:00 to 8:10 88.52 88.78 88.29 89.01 88.58 88.45
2/24/2022 08:00 to 7:10 89.03 89.01 87.98 87.86 87.86 87.73
2/24/2022 07:00 to 6:10 87.82 87.63 87.82 88.19 87.71 88.83
2/24/2022 06:00 to 5:10 88.78 88.89 89.14 88.97 88.85 88.64
2/24/2022 05:00 to 4:10 88.56 88.15 88.15 87.94 87.32 87.18
2/24/2022 04:00 to 3:10 87.67 87.34 87.07 87.14 87.51 87.80
2/24/2022 03:00 to 2:10 87.96 88.66 87.71 87.34 86.78 86.50
2/24/2022 02:00 to 1:10 86.54 86.25 87.82 87.73 88.62 88.95
2/24/2022 01:00 to 0:10 89.32 89.73 90.66 89.63 89.84 89.53